createdAt,value
2017-10-14T00:01:47.625Z,9.03
2017-10-14T00:04:14.060Z,8.20
2017-10-14T00:06:40.494Z,8.10
2017-10-14T00:09:06.929Z,8.57
2017-10-14T00:11:33.363Z,7.90
2017-10-14T00:13:59.749Z,7.57
2017-10-14T00:16:27.071Z,8.07
2017-10-14T00:18:53.596Z,7.93
2017-10-14T00:21:20.024Z,8.20
2017-10-14T00:23:46.459Z,8.00
2017-10-14T00:26:12.900Z,8.23
2017-10-14T00:28:39.331Z,8.40
2017-10-14T00:31:05.869Z,8.10
2017-10-14T00:33:33.020Z,8.43
2017-10-14T00:35:59.455Z,8.50
2017-10-14T00:38:25.893Z,7.90
2017-10-14T00:40:52.322Z,7.57
2017-10-14T00:43:18.703Z,8.30
2017-10-14T00:45:45.192Z,7.23
2017-10-14T00:48:11.626Z,8.20
2017-10-14T00:50:38.727Z,8.17
2017-10-14T00:53:05.109Z,8.87
2017-10-14T00:55:31.545Z,8.00
2017-10-14T00:57:58.086Z,8.00
2017-10-14T01:00:24.515Z,8.10
2017-10-14T01:02:50.951Z,8.10
2017-10-14T01:05:17.298Z,8.50
2017-10-14T01:07:44.642Z,8.13
2017-10-14T01:10:11.075Z,8.30
2017-10-14T01:12:37.510Z,8.13
2017-10-14T01:15:03.995Z,8.57
2017-10-14T01:17:30.481Z,7.70
2017-10-14T01:19:56.813Z,8.43
2017-10-14T01:22:23.253Z,8.80
2017-10-14T01:24:50.400Z,9.10
2017-10-14T01:27:16.834Z,8.57
2017-10-14T01:29:43.270Z,9.03
2017-10-14T01:32:09.705Z,8.50
2017-10-14T01:34:36.090Z,8.80
2017-10-14T01:37:02.523Z,8.83
2017-10-14T01:39:28.988Z,7.93
2017-10-14T01:41:56.169Z,8.33
2017-10-14T01:44:22.596Z,8.03
2017-10-14T01:46:49.030Z,9.17
2017-10-14T01:49:15.470Z,8.70
2017-10-14T01:51:41.899Z,8.00
2017-10-14T01:54:08.335Z,9.00
2017-10-14T01:56:34.770Z,8.67
2017-10-14T01:59:02.025Z,8.67
2017-10-14T02:01:28.458Z,9.20
2017-10-14T02:03:54.885Z,8.60
2017-10-14T02:06:21.327Z,8.93
2017-10-14T02:08:47.763Z,8.97
2017-10-14T02:11:14.143Z,8.90
2017-10-14T02:13:40.633Z,8.80
2017-10-14T02:16:07.783Z,8.53
2017-10-14T02:18:34.320Z,8.70
2017-10-14T02:21:00.756Z,8.13
2017-10-14T02:23:27.193Z,8.47
2017-10-14T02:25:53.644Z,8.43
2017-10-14T02:28:20.162Z,8.77
2017-10-14T02:30:46.597Z,8.13
2017-10-14T02:33:13.852Z,9.00
2017-10-14T02:35:40.287Z,9.37
2017-10-14T02:38:06.674Z,8.83
2017-10-14T02:40:33.147Z,9.23
2017-10-14T02:42:59.599Z,8.77
2017-10-14T02:45:25.982Z,8.60
2017-10-14T02:47:52.360Z,9.10
2017-10-14T02:50:19.515Z,8.90
2017-10-14T02:52:45.911Z,8.87
2017-10-14T02:55:12.282Z,9.37
2017-10-14T02:57:38.662Z,8.93
2017-10-14T03:00:05.044Z,8.77
2017-10-14T03:02:31.479Z,8.77
2017-10-14T03:04:57.871Z,8.80
2017-10-14T03:07:25.167Z,9.10
2017-10-14T03:09:51.602Z,9.30
2017-10-14T03:12:17.988Z,9.30
2017-10-14T03:14:44.370Z,9.17
2017-10-14T03:17:10.805Z,8.77
2017-10-14T03:19:37.238Z,9.10
2017-10-14T03:22:03.673Z,9.17
2017-10-14T03:24:30.926Z,9.50
2017-10-14T03:26:57.328Z,10.20
2017-10-14T03:29:23.756Z,9.23
2017-10-14T03:31:50.214Z,8.73
2017-10-14T03:34:16.618Z,9.30
2017-10-14T03:36:43.101Z,8.80
2017-10-14T03:39:09.537Z,8.37
2017-10-14T03:41:36.790Z,9.30
2017-10-14T03:44:03.227Z,9.77
2017-10-14T03:46:29.762Z,8.70
2017-10-14T03:48:56.300Z,9.27
2017-10-14T03:51:22.735Z,9.23
2017-10-14T03:53:49.228Z,8.90
2017-10-14T03:56:15.715Z,10.20
2017-10-14T03:58:42.858Z,9.07
2017-10-14T04:01:09.311Z,10.10
2017-10-14T04:03:35.830Z,10.50
2017-10-14T04:06:02.264Z,9.90
2017-10-14T04:08:28.648Z,9.67
2017-10-14T04:10:55.545Z,9.30
2017-10-14T04:13:21.979Z,10.40
2017-10-14T04:15:49.116Z,10.90
2017-10-14T04:18:15.668Z,11.57
2017-10-14T04:20:42.103Z,9.70
2017-10-14T04:23:09.378Z,10.23
2017-10-14T04:25:35.947Z,9.60
2017-10-14T04:28:02.448Z,9.50
2017-10-14T04:30:28.866Z,9.93
2017-10-14T04:32:55.301Z,9.23
2017-10-14T04:35:21.735Z,8.93
2017-10-14T04:37:48.170Z,9.60
2017-10-14T04:40:14.607Z,10.60
2017-10-14T04:42:41.039Z,10.03
2017-10-14T04:45:07.475Z,10.73
2017-10-14T04:47:33.903Z,10.43
2017-10-14T04:50:00.344Z,9.97
2017-10-14T04:52:26.790Z,9.83
2017-10-14T04:54:53.214Z,9.30
2017-10-14T04:57:19.649Z,11.40
2017-10-14T04:59:46.084Z,12.27
2017-10-14T05:02:12.868Z,10.40
2017-10-14T05:04:39.261Z,10.73
2017-10-14T05:07:05.713Z,9.60
2017-10-14T05:09:32.110Z,10.00
2017-10-14T05:11:58.566Z,13.80
2017-10-14T05:14:25.000Z,10.17
2017-10-14T05:16:51.434Z,12.00
2017-10-14T05:19:17.869Z,11.50
2017-10-14T05:21:44.308Z,13.00
2017-10-14T05:24:10.742Z,10.83
2017-10-14T05:26:37.179Z,10.93
2017-10-14T05:29:03.647Z,12.53
2017-10-14T05:31:30.142Z,11.30
2017-10-14T05:33:56.581Z,10.67
2017-10-14T05:36:22.930Z,10.93
2017-10-14T05:38:49.369Z,11.20
2017-10-14T05:41:15.785Z,11.80
2017-10-14T05:43:42.216Z,11.47
2017-10-14T05:46:08.620Z,12.23
2017-10-14T05:48:35.088Z,11.67
2017-10-14T05:51:01.522Z,10.67
2017-10-14T05:53:27.956Z,10.63
2017-10-14T05:55:54.391Z,10.57
2017-10-14T05:58:20.826Z,9.90
2017-10-14T06:00:47.252Z,10.00
2017-10-14T06:03:13.685Z,9.50
2017-10-14T06:05:40.132Z,32.93
2017-10-14T06:08:06.566Z,35.60
2017-10-14T06:10:33.001Z,23.53
2017-10-14T06:12:59.454Z,11.40
2017-10-14T06:15:25.870Z,11.60
2017-10-14T06:17:53.124Z,11.30
2017-10-14T06:20:19.559Z,12.10
2017-10-14T06:22:46.097Z,10.80
2017-10-14T06:25:12.632Z,9.40
2017-10-14T06:27:39.068Z,11.00
2017-10-14T06:30:05.504Z,10.23
2017-10-14T06:32:31.883Z,9.30
2017-10-14T06:34:58.390Z,9.10
2017-10-14T06:37:24.890Z,10.00
2017-10-14T06:39:51.344Z,9.00
2017-10-14T06:42:17.785Z,8.57
2017-10-14T06:44:44.215Z,8.53
2017-10-14T06:47:10.649Z,10.87
2017-10-14T06:49:37.044Z,8.43
2017-10-14T06:52:03.518Z,8.33
2017-10-14T06:54:29.905Z,7.90
2017-10-14T06:56:56.377Z,7.27
2017-10-14T06:59:22.822Z,7.97
2017-10-14T07:01:49.205Z,7.50
2017-10-14T07:04:15.662Z,7.50
2017-10-14T07:06:42.229Z,7.47
2017-10-14T07:09:08.615Z,8.40
2017-10-14T07:11:35.081Z,8.13
2017-10-14T07:14:01.537Z,7.37
2017-10-14T07:16:28.073Z,7.30
2017-10-14T07:18:55.209Z,6.90
2017-10-14T07:21:21.660Z,7.60
2017-10-14T07:23:48.093Z,7.90
2017-10-14T07:26:14.936Z,7.43
2017-10-14T07:28:41.319Z,7.93
2017-10-14T07:31:07.830Z,7.67
2017-10-14T07:33:37.055Z,7.53
2017-10-14T07:36:06.442Z,7.40
2017-10-14T07:38:35.146Z,7.00
2017-10-14T07:41:01.636Z,7.70
2017-10-14T07:43:30.908Z,7.10
2017-10-14T07:45:57.372Z,7.50
2017-10-14T07:48:24.932Z,7.00
2017-10-14T07:50:51.287Z,7.73
2017-10-14T07:53:17.700Z,8.37
2017-10-14T07:55:44.441Z,9.10
2017-10-14T07:58:10.877Z,8.20
2017-10-14T08:00:37.312Z,7.23
2017-10-14T08:03:03.746Z,7.20
2017-10-14T08:05:30.284Z,7.40
2017-10-14T08:07:56.667Z,7.40
2017-10-14T08:10:23.152Z,8.20
2017-10-14T08:12:49.587Z,7.53
2017-10-14T08:15:16.409Z,6.93
2017-10-14T08:17:42.763Z,6.60
2017-10-14T08:20:09.219Z,7.30
2017-10-14T08:22:35.759Z,7.50
2017-10-14T08:25:02.119Z,6.80
2017-10-14T08:27:28.759Z,6.97
2017-10-14T08:29:55.193Z,8.23
2017-10-14T08:32:21.782Z,7.30
2017-10-14T08:34:48.197Z,6.53
2017-10-14T08:37:14.640Z,7.20
2017-10-14T08:39:41.086Z,7.00
2017-10-14T08:42:07.828Z,6.83
2017-10-14T08:44:35.184Z,7.47
2017-10-14T08:47:01.621Z,6.03
2017-10-14T08:49:28.259Z,6.67
2017-10-14T08:51:54.646Z,7.27
2017-10-14T08:54:21.113Z,7.20
2017-10-14T08:56:47.666Z,7.67
2017-10-14T08:59:14.100Z,7.10
2017-10-14T09:01:40.534Z,7.93
2017-10-14T09:04:07.188Z,7.13
2017-10-14T09:06:33.654Z,8.00
2017-10-14T09:09:00.236Z,7.63
2017-10-14T09:11:27.606Z,8.20
2017-10-14T09:13:54.040Z,7.73
2017-10-14T09:16:20.546Z,7.10
2017-10-14T09:18:47.012Z,7.17
2017-10-14T09:21:13.406Z,7.00
2017-10-14T09:23:39.874Z,6.90
2017-10-14T09:26:06.373Z,7.10
2017-10-14T09:28:33.191Z,7.27
2017-10-14T09:30:59.698Z,7.00
2017-10-14T09:33:26.087Z,7.20
2017-10-14T09:35:53.182Z,6.57
2017-10-14T09:38:19.617Z,6.23
2017-10-14T09:40:46.052Z,6.40
2017-10-14T09:43:14.409Z,6.43
2017-10-14T09:45:42.396Z,6.40
2017-10-14T09:48:11.487Z,6.60
2017-10-14T09:50:38.345Z,7.50
2017-10-14T09:53:04.720Z,6.83
2017-10-14T09:55:31.214Z,6.90
2017-10-14T09:57:57.650Z,7.10
2017-10-14T10:00:24.084Z,6.67
2017-10-14T10:02:50.520Z,6.73
2017-10-14T10:05:17.056Z,6.33
2017-10-14T10:07:43.500Z,7.50
2017-10-14T10:10:10.233Z,7.50
2017-10-14T10:12:36.670Z,7.20
2017-10-14T10:15:03.150Z,6.70
2017-10-14T10:17:29.537Z,7.30
2017-10-14T10:19:55.973Z,6.47
2017-10-14T10:22:22.354Z,7.23
2017-10-14T10:24:49.259Z,6.87
2017-10-14T10:27:15.638Z,7.17
2017-10-14T10:29:42.122Z,7.20
2017-10-14T10:32:08.557Z,7.03
2017-10-14T10:34:34.942Z,7.17
2017-10-14T10:37:01.327Z,6.90
2017-10-14T10:39:27.860Z,7.20
2017-10-14T10:41:54.297Z,7.10
2017-10-14T10:44:20.684Z,7.47
2017-10-14T10:46:47.172Z,8.40
2017-10-14T10:49:13.600Z,8.10
2017-10-14T10:51:40.034Z,8.97
2017-10-14T10:54:06.826Z,7.40
2017-10-14T10:56:33.268Z,7.70
2017-10-14T10:58:59.734Z,7.90
2017-10-14T11:01:26.183Z,7.47
2017-10-14T11:03:52.619Z,7.97
2017-10-14T11:06:19.053Z,7.93
2017-10-14T11:08:45.452Z,6.93
2017-10-14T11:11:11.922Z,6.50
2017-10-14T11:13:38.356Z,7.50
2017-10-14T11:16:04.811Z,7.30
2017-10-14T11:18:31.227Z,7.30
2017-10-14T11:20:58.097Z,7.50
2017-10-14T11:23:24.609Z,7.00
2017-10-14T11:25:51.874Z,7.10
2017-10-14T11:28:18.502Z,7.37
2017-10-14T11:30:44.882Z,6.90
2017-10-14T11:33:11.371Z,7.10
2017-10-14T11:35:37.806Z,8.00
2017-10-14T11:38:04.187Z,6.80
2017-10-14T11:40:30.613Z,6.60
2017-10-14T11:42:57.065Z,6.83
2017-10-14T11:45:23.969Z,6.53
2017-10-14T11:47:50.595Z,6.47
2017-10-14T11:50:21.352Z,5.80
2017-10-14T11:52:47.765Z,5.10
2017-10-14T11:55:14.658Z,5.83
2017-10-14T11:57:41.586Z,5.40
2017-10-14T12:00:09.069Z,5.90
2017-10-14T12:02:36.697Z,5.50
2017-10-14T12:05:04.064Z,5.57
2017-10-14T12:07:30.678Z,6.20
2017-10-14T12:10:00.139Z,5.13
2017-10-14T12:12:27.836Z,5.17
2017-10-14T12:14:54.234Z,5.50
2017-10-14T12:17:21.260Z,5.53
2017-10-14T12:19:49.256Z,4.77
2017-10-14T12:22:17.362Z,5.13
2017-10-14T12:24:44.013Z,5.17
2017-10-14T12:27:10.861Z,5.43
2017-10-14T12:29:37.292Z,5.50
2017-10-14T12:32:03.730Z,5.07
2017-10-14T12:34:30.184Z,5.33
2017-10-14T12:36:56.647Z,6.00
2017-10-14T12:39:23.034Z,5.13
2017-10-14T12:41:49.468Z,6.10
2017-10-14T12:44:15.852Z,5.40
2017-10-14T12:46:42.315Z,5.53
2017-10-14T12:49:08.760Z,5.20
2017-10-14T12:51:35.205Z,5.60
2017-10-14T12:54:01.646Z,5.40
2017-10-14T12:56:28.124Z,4.63
2017-10-14T12:58:54.607Z,5.50
2017-10-14T13:01:21.067Z,4.90
2017-10-14T13:03:47.481Z,4.97
2017-10-14T13:06:13.922Z,5.33
2017-10-14T13:08:40.352Z,5.23
2017-10-14T13:11:06.786Z,4.77
2017-10-14T13:13:33.223Z,4.90
2017-10-14T13:15:59.631Z,5.20
2017-10-14T13:18:26.074Z,5.40
2017-10-14T13:20:52.492Z,4.97
2017-10-14T13:23:19.325Z,5.10
2017-10-14T13:25:45.778Z,5.30
2017-10-14T13:28:12.195Z,5.40
2017-10-14T13:30:38.629Z,5.10
2017-10-14T13:33:05.114Z,5.23
2017-10-14T13:35:31.544Z,5.30
2017-10-14T13:37:57.980Z,5.20
2017-10-14T13:40:24.413Z,4.93
2017-10-14T13:42:50.849Z,5.40
2017-10-14T13:45:17.284Z,5.30
2017-10-14T13:47:43.718Z,5.50
2017-10-14T13:50:10.176Z,5.53
2017-10-14T13:52:36.596Z,5.67
2017-10-14T13:55:03.229Z,5.80
2017-10-14T13:57:29.666Z,5.80
2017-10-14T13:59:56.048Z,6.30
2017-10-14T14:02:22.639Z,6.20
2017-10-14T14:04:49.173Z,6.53
2017-10-14T14:07:15.627Z,6.50
2017-10-14T14:09:42.041Z,6.37
2017-10-14T14:12:09.268Z,6.77
2017-10-14T14:14:35.887Z,7.40
2017-10-14T14:17:02.371Z,7.50
2017-10-14T14:19:28.804Z,6.90
2017-10-14T14:21:55.241Z,6.63
2017-10-14T14:24:21.679Z,6.90
2017-10-14T14:26:48.109Z,6.50
2017-10-14T14:29:15.614Z,6.87
2017-10-14T14:31:42.487Z,6.53
2017-10-14T14:34:08.930Z,6.73
2017-10-14T14:36:35.385Z,6.40
2017-10-14T14:39:01.820Z,7.20
2017-10-14T14:41:28.269Z,5.90
2017-10-14T14:43:54.644Z,6.70
2017-10-14T14:46:21.124Z,6.10
2017-10-14T14:48:47.560Z,6.47
2017-10-14T14:51:13.993Z,6.33
2017-10-14T14:53:40.427Z,6.73
2017-10-14T14:56:06.864Z,6.73
2017-10-14T14:58:33.298Z,6.20
2017-10-14T15:00:59.732Z,6.30
2017-10-14T15:03:26.188Z,7.07
2017-10-14T15:05:52.602Z,7.10
2017-10-14T15:08:19.040Z,6.60
2017-10-14T15:10:46.188Z,7.10
2017-10-14T15:13:12.624Z,7.43
2017-10-14T15:15:39.058Z,7.30
2017-10-14T15:18:05.453Z,7.50
2017-10-14T15:20:31.825Z,7.67
2017-10-14T15:22:58.260Z,7.80
2017-10-14T15:25:24.696Z,7.87
2017-10-14T15:27:51.846Z,9.23
2017-10-14T15:30:18.282Z,8.23
2017-10-14T15:32:44.662Z,8.67
2017-10-14T15:35:11.098Z,9.20
2017-10-14T15:37:37.586Z,9.00
2017-10-14T15:40:04.023Z,9.30
2017-10-14T15:42:30.559Z,9.10
2017-10-14T15:44:57.710Z,9.07
2017-10-14T15:47:24.145Z,9.50
2017-10-14T15:49:50.583Z,8.97
2017-10-14T15:52:17.023Z,10.30
2017-10-14T15:54:43.453Z,10.60
2017-10-14T15:57:09.885Z,10.37
2017-10-14T15:59:36.273Z,11.70
2017-10-14T16:02:03.419Z,13.50
2017-10-14T16:04:29.889Z,14.23
2017-10-14T16:06:56.253Z,13.80
2017-10-14T16:09:22.644Z,14.93
2017-10-14T16:11:49.109Z,14.20
2017-10-14T16:14:15.542Z,14.20
2017-10-14T16:16:41.976Z,13.03
2017-10-14T16:19:09.130Z,13.40
2017-10-14T16:21:35.563Z,13.50
2017-10-14T16:24:02.205Z,13.90
2017-10-14T16:26:28.740Z,13.00
2017-10-14T16:28:55.174Z,13.70
2017-10-14T16:31:21.532Z,13.37
2017-10-14T16:33:48.025Z,13.70
2017-10-14T16:36:15.147Z,13.40
2017-10-14T16:38:41.630Z,12.80
2017-10-14T16:41:08.090Z,13.20
2017-10-14T16:43:34.603Z,12.80
2017-10-14T16:46:01.038Z,12.23
2017-10-14T16:48:27.523Z,12.40
2017-10-14T16:50:54.028Z,10.67
2017-10-14T16:53:21.160Z,12.67
2017-10-14T16:55:47.595Z,12.07
2017-10-14T16:58:14.084Z,12.07
2017-10-14T17:00:40.466Z,11.83
2017-10-14T17:03:07.008Z,11.70
2017-10-14T17:05:33.388Z,10.60
2017-10-14T17:07:59.872Z,10.87
2017-10-14T17:10:27.023Z,10.47
2017-10-14T17:12:53.416Z,11.40
2017-10-14T17:15:19.846Z,10.90
2017-10-14T17:17:46.332Z,10.70
2017-10-14T17:20:12.765Z,10.93
2017-10-14T17:22:39.694Z,12.70
2017-10-14T17:25:06.247Z,12.60
2017-10-14T17:27:33.398Z,11.73
2017-10-14T17:29:59.834Z,11.53
2017-10-14T17:32:26.267Z,11.40
2017-10-14T17:34:52.667Z,10.63
2017-10-14T17:37:19.104Z,11.20
2017-10-14T17:39:45.549Z,11.83
2017-10-14T17:42:12.008Z,12.80
2017-10-14T17:44:39.876Z,12.80
2017-10-14T17:47:06.503Z,13.10
2017-10-14T17:49:33.258Z,13.47
2017-10-14T17:51:59.693Z,13.30
2017-10-14T17:54:26.847Z,14.63
2017-10-14T17:56:53.692Z,13.60
2017-10-14T17:59:20.209Z,12.90
2017-10-14T18:01:47.253Z,13.40
2017-10-14T18:04:13.813Z,13.03
2017-10-14T18:06:40.247Z,13.43
2017-10-14T18:09:07.398Z,13.93
2017-10-14T18:11:34.552Z,14.63
2017-10-14T18:14:01.682Z,15.53
2017-10-14T18:16:29.060Z,14.70
2017-10-14T18:18:56.055Z,14.00
2017-10-14T18:21:23.157Z,13.83
2017-10-14T18:23:50.595Z,13.80
2017-10-14T18:26:17.460Z,13.60
2017-10-14T18:28:43.997Z,13.87
2017-10-14T18:31:10.432Z,13.63
2017-10-14T18:33:36.872Z,13.20
2017-10-14T18:36:03.301Z,12.60
2017-10-14T18:38:30.194Z,12.10
2017-10-14T18:40:56.661Z,12.30
2017-10-14T18:43:23.324Z,12.80
2017-10-14T18:45:49.922Z,11.90
2017-10-14T18:48:16.416Z,12.13
2017-10-14T18:50:43.446Z,12.53
2017-10-14T18:53:10.172Z,13.40
2017-10-14T18:55:36.615Z,15.90
2017-10-14T18:58:03.058Z,13.50
2017-10-14T19:00:29.494Z,12.10
2017-10-14T19:02:56.668Z,12.47
2017-10-14T19:05:23.285Z,12.97
2017-10-14T19:07:49.722Z,11.53
2017-10-14T19:10:16.259Z,11.47
2017-10-14T19:12:42.692Z,12.20
2017-10-14T19:15:09.125Z,10.70
2017-10-14T19:17:35.868Z,12.07
2017-10-14T19:20:02.812Z,14.83
2017-10-14T19:22:29.863Z,18.50
2017-10-14T19:24:57.342Z,15.67
2017-10-14T19:27:24.507Z,15.67
2017-10-14T19:29:51.319Z,15.57
2017-10-14T19:32:17.857Z,15.20
2017-10-14T19:34:44.296Z,15.13
2017-10-14T19:37:10.686Z,15.87
2017-10-14T19:39:37.061Z,17.40
2017-10-14T19:42:03.494Z,13.17
2017-10-14T19:44:29.928Z,14.20
2017-10-14T19:46:56.363Z,13.83
2017-10-14T19:49:22.902Z,13.13
2017-10-14T19:51:49.335Z,12.63
2017-10-14T19:54:16.481Z,13.37
2017-10-14T19:56:42.928Z,13.57
2017-10-14T19:59:09.357Z,12.50
2017-10-14T20:01:35.791Z,12.83
2017-10-14T20:04:02.328Z,12.90
2017-10-14T20:06:28.720Z,13.00
2017-10-14T20:08:55.198Z,12.90
2017-10-14T20:11:22.372Z,12.70
2017-10-14T20:13:48.785Z,11.90
2017-10-14T20:16:15.219Z,12.60
2017-10-14T20:18:41.653Z,11.50
2017-10-14T20:21:08.089Z,11.83
2017-10-14T20:23:34.523Z,12.97
2017-10-14T20:26:00.958Z,11.80
2017-10-14T20:28:28.107Z,12.00
2017-10-14T20:30:54.547Z,11.83
2017-10-14T20:33:20.981Z,12.47
2017-10-14T20:35:47.332Z,13.07
2017-10-14T20:38:13.745Z,12.90
2017-10-14T20:40:40.181Z,12.07
2017-10-14T20:43:06.619Z,10.63
2017-10-14T20:45:33.771Z,12.13
2017-10-14T20:48:00.208Z,15.60
2017-10-14T20:50:26.591Z,15.40
2017-10-14T20:52:53.092Z,16.47
2017-10-14T20:55:19.507Z,16.67
2017-10-14T20:57:45.942Z,15.30
2017-10-14T21:00:12.328Z,16.50
2017-10-14T21:02:39.527Z,15.57
2017-10-14T21:05:06.065Z,16.20
2017-10-14T21:07:32.504Z,15.33
2017-10-14T21:09:58.934Z,15.40
2017-10-14T21:12:25.370Z,14.40
2017-10-14T21:14:51.807Z,14.73
2017-10-14T21:17:18.238Z,14.47
2017-10-14T21:19:45.493Z,14.10
2017-10-14T21:22:11.929Z,14.93
2017-10-14T21:24:38.364Z,15.70
2017-10-14T21:27:04.798Z,15.77
2017-10-14T21:29:31.234Z,14.67
2017-10-14T21:31:57.667Z,14.23
2017-10-14T21:34:24.101Z,14.50
2017-10-14T21:36:51.252Z,17.20
2017-10-14T21:39:17.688Z,15.97
2017-10-14T21:41:44.123Z,17.60
2017-10-14T21:44:10.559Z,18.17
2017-10-14T21:46:36.948Z,16.30
2017-10-14T21:49:03.324Z,16.80
2017-10-14T21:51:29.861Z,16.90
2017-10-14T21:53:56.911Z,18.93
2017-10-14T21:56:23.349Z,17.73
2017-10-14T21:58:49.780Z,15.60
2017-10-14T22:01:16.214Z,17.43
2017-10-14T22:03:42.607Z,18.27
2017-10-14T22:06:09.070Z,17.53
2017-10-14T22:08:35.520Z,17.70
2017-10-14T22:11:02.780Z,17.90
2017-10-14T22:13:29.229Z,17.73
2017-10-14T22:15:55.745Z,16.93
2017-10-14T22:18:22.180Z,17.30
2017-10-14T22:20:48.616Z,17.67
2017-10-14T22:23:15.052Z,15.90
2017-10-14T22:25:41.432Z,16.97
2017-10-14T22:28:08.698Z,16.63
2017-10-14T22:30:35.166Z,16.67
2017-10-14T22:33:01.609Z,18.47
2017-10-14T22:35:28.044Z,19.17
2017-10-14T22:37:54.441Z,18.90
2017-10-14T22:40:20.914Z,17.57
2017-10-14T22:42:47.302Z,16.97
2017-10-14T22:45:14.596Z,17.33
2017-10-14T22:47:41.037Z,16.60
2017-10-14T22:50:07.555Z,18.47
2017-10-14T22:52:33.997Z,19.70
2017-10-14T22:55:00.440Z,18.37
2017-10-14T22:57:26.878Z,17.60
2017-10-14T22:59:53.313Z,19.60
2017-10-14T23:02:20.520Z,17.57
2017-10-14T23:04:46.955Z,17.10
2017-10-14T23:07:13.455Z,16.90
2017-10-14T23:09:39.823Z,17.90
2017-10-14T23:12:06.307Z,18.40
2017-10-14T23:14:32.696Z,17.13
2017-10-14T23:16:59.171Z,18.00
2017-10-14T23:19:26.327Z,18.00
2017-10-14T23:21:52.762Z,18.43
2017-10-14T23:24:19.198Z,18.70
2017-10-14T23:26:45.587Z,20.30
2017-10-14T23:29:12.023Z,20.60
2017-10-14T23:31:38.501Z,18.67
2017-10-14T23:34:04.936Z,18.60
2017-10-14T23:36:31.986Z,18.30
2017-10-14T23:38:58.371Z,17.70
2017-10-14T23:41:24.753Z,18.60
2017-10-14T23:43:51.143Z,17.53
2017-10-14T23:46:17.653Z,18.83
2017-10-14T23:48:44.161Z,18.87
2017-10-14T23:51:10.595Z,18.73
2017-10-14T23:53:37.644Z,19.00
2017-10-14T23:56:04.079Z,19.00
2017-10-14T23:58:30.513Z,18.70
